sensor_id;sensor_type;location;lat;lon;timestamp;P1;durP1;ratioP1;P2;durP2;ratioP2
20966;SDS011;10642;50.682;18.510;2023-10-09T00:02:11;12.70;;;3.40;;
20966;SDS011;10642;50.682;18.510;2023-10-09T00:04:38;8.53;;;3.60;;
20966;SDS011;10642;50.682;18.510;2023-10-09T00:07:09;8.87;;;3.63;;
20966;SDS011;10642;50.682;18.510;2023-10-09T00:09:39;7.73;;;3.50;;
20966;SDS011;10642;50.682;18.510;2023-10-09T00:12:18;7.87;;;3.80;;
20966;SDS011;10642;50.682;18.510;2023-10-09T00:14:50;9.50;;;3.80;;
20966;SDS011;10642;50.682;18.510;2023-10-09T00:17:23;7.83;;;3.80;;
20966;SDS011;10642;50.682;18.510;2023-10-09T00:19:51;10.87;;;4.90;;
20966;SDS011;10642;50.682;18.510;2023-10-09T00:22:19;7.23;;;4.10;;
20966;SDS011;10642;50.682;18.510;2023-10-09T00:24:55;9.53;;;3.83;;
20966;SDS011;10642;50.682;18.510;2023-10-09T00:30:15;8.60;;;3.57;;
20966;SDS011;10642;50.682;18.510;2023-10-09T00:32:48;8.73;;;3.77;;
20966;SDS011;10642;50.682;18.510;2023-10-09T00:35:36;8.33;;;3.90;;
20966;SDS011;10642;50.682;18.510;2023-10-09T00:38:04;9.83;;;4.40;;
20966;SDS011;10642;50.682;18.510;2023-10-09T00:40:47;11.30;;;4.30;;
20966;SDS011;10642;50.682;18.510;2023-10-09T00:43:24;8.93;;;4.40;;
20966;SDS011;10642;50.682;18.510;2023-10-09T00:45:55;9.13;;;4.27;;
20966;SDS011;10642;50.682;18.510;2023-10-09T00:48:23;5.37;;;3.23;;
20966;SDS011;10642;50.682;18.510;2023-10-09T00:51:04;9.27;;;4.40;;
20966;SDS011;10642;50.682;18.510;2023-10-09T00:53:48;11.33;;;5.40;;
20966;SDS011;10642;50.682;18.510;2023-10-09T00:56:18;8.43;;;4.57;;
20966;SDS011;10642;50.682;18.510;2023-10-09T00:58:47;9.60;;;4.63;;
20966;SDS011;10642;50.682;18.510;2023-10-09T01:01:16;10.27;;;5.17;;
20966;SDS011;10642;50.682;18.510;2023-10-09T01:03:43;7.30;;;3.67;;
20966;SDS011;10642;50.682;18.510;2023-10-09T01:06:12;6.83;;;3.93;;
20966;SDS011;10642;50.682;18.510;2023-10-09T01:08:39;11.00;;;4.60;;
20966;SDS011;10642;50.682;18.510;2023-10-09T01:11:07;12.30;;;5.93;;
20966;SDS011;10642;50.682;18.510;2023-10-09T01:13:37;12.87;;;5.47;;
20966;SDS011;10642;50.682;18.510;2023-10-09T01:16:17;12.43;;;5.23;;
20966;SDS011;10642;50.682;18.510;2023-10-09T01:18:44;11.03;;;4.73;;
20966;SDS011;10642;50.682;18.510;2023-10-09T01:21:13;11.53;;;5.57;;
20966;SDS011;10642;50.682;18.510;2023-10-09T01:23:42;10.27;;;5.27;;
20966;SDS011;10642;50.682;18.510;2023-10-09T01:26:34;13.57;;;5.67;;
20966;SDS011;10642;50.682;18.510;2023-10-09T01:29:27;11.70;;;5.33;;
20966;SDS011;10642;50.682;18.510;2023-10-09T01:31:56;10.47;;;5.07;;
20966;SDS011;10642;50.682;18.510;2023-10-09T01:34:28;9.57;;;4.57;;
20966;SDS011;10642;50.682;18.510;2023-10-09T01:37:05;11.70;;;5.07;;
20966;SDS011;10642;50.682;18.510;2023-10-09T01:39:39;8.47;;;4.17;;
20966;SDS011;10642;50.682;18.510;2023-10-09T01:42:09;7.40;;;4.57;;
20966;SDS011;10642;50.682;18.510;2023-10-09T01:44:37;7.90;;;4.33;;
20966;SDS011;10642;50.682;18.510;2023-10-09T01:47:10;12.87;;;5.13;;
20966;SDS011;10642;50.682;18.510;2023-10-09T01:49:45;10.67;;;5.17;;
20966;SDS011;10642;50.682;18.510;2023-10-09T01:52:16;11.87;;;5.00;;
20966;SDS011;10642;50.682;18.510;2023-10-09T01:54:44;9.27;;;5.13;;
20966;SDS011;10642;50.682;18.510;2023-10-09T01:57:16;15.40;;;8.37;;
20966;SDS011;10642;50.682;18.510;2023-10-09T01:59:49;22.23;;;15.43;;
20966;SDS011;10642;50.682;18.510;2023-10-09T02:02:16;20.23;;;12.97;;
20966;SDS011;10642;50.682;18.510;2023-10-09T02:05:01;11.63;;;5.63;;
20966;SDS011;10642;50.682;18.510;2023-10-09T02:07:48;50.43;;;11.43;;
20966;SDS011;10642;50.682;18.510;2023-10-09T02:12:53;25.93;;;8.77;;
20966;SDS011;10642;50.682;18.510;2023-10-09T02:15:30;12.23;;;4.87;;
20966;SDS011;10642;50.682;18.510;2023-10-09T02:18:10;9.90;;;4.80;;
20966;SDS011;10642;50.682;18.510;2023-10-09T02:20:46;10.23;;;4.17;;
20966;SDS011;10642;50.682;18.510;2023-10-09T02:23:14;10.70;;;4.53;;
20966;SDS011;10642;50.682;18.510;2023-10-09T02:25:47;8.70;;;4.60;;
20966;SDS011;10642;50.682;18.510;2023-10-09T02:28:19;13.13;;;4.77;;
20966;SDS011;10642;50.682;18.510;2023-10-09T02:30:46;10.10;;;4.97;;
20966;SDS011;10642;50.682;18.510;2023-10-09T02:33:18;12.37;;;5.03;;
20966;SDS011;10642;50.682;18.510;2023-10-09T02:35:47;10.50;;;5.10;;
20966;SDS011;10642;50.682;18.510;2023-10-09T02:38:18;8.17;;;4.23;;
20966;SDS011;10642;50.682;18.510;2023-10-09T02:40:50;8.90;;;4.20;;
20966;SDS011;10642;50.682;18.510;2023-10-09T02:43:30;12.73;;;5.10;;
20966;SDS011;10642;50.682;18.510;2023-10-09T02:46:17;7.30;;;4.23;;
20966;SDS011;10642;50.682;18.510;2023-10-09T02:48:45;8.93;;;4.23;;
20966;SDS011;10642;50.682;18.510;2023-10-09T02:51:18;10.97;;;4.23;;
20966;SDS011;10642;50.682;18.510;2023-10-09T02:54:00;8.47;;;3.97;;
20966;SDS011;10642;50.682;18.510;2023-10-09T02:56:34;11.20;;;5.23;;
20966;SDS011;10642;50.682;18.510;2023-10-09T02:59:07;9.53;;;4.70;;
20966;SDS011;10642;50.682;18.510;2023-10-09T03:01:35;10.87;;;5.10;;
20966;SDS011;10642;50.682;18.510;2023-10-09T03:04:04;10.13;;;5.30;;
20966;SDS011;10642;50.682;18.510;2023-10-09T03:06:32;10.97;;;5.63;;
20966;SDS011;10642;50.682;18.510;2023-10-09T03:09:01;9.03;;;4.97;;
20966;SDS011;10642;50.682;18.510;2023-10-09T03:11:46;7.57;;;4.33;;
20966;SDS011;10642;50.682;18.510;2023-10-09T03:14:14;13.27;;;4.93;;
20966;SDS011;10642;50.682;18.510;2023-10-09T03:16:43;12.87;;;4.67;;
20966;SDS011;10642;50.682;18.510;2023-10-09T03:19:10;9.97;;;4.37;;
20966;SDS011;10642;50.682;18.510;2023-10-09T03:21:37;9.13;;;4.33;;
20966;SDS011;10642;50.682;18.510;2023-10-09T03:24:04;9.83;;;4.40;;
20966;SDS011;10642;50.682;18.510;2023-10-09T03:26:32;12.13;;;4.80;;
20966;SDS011;10642;50.682;18.510;2023-10-09T03:28:59;9.20;;;4.40;;
20966;SDS011;10642;50.682;18.510;2023-10-09T03:31:28;7.80;;;4.73;;
20966;SDS011;10642;50.682;18.510;2023-10-09T03:33:57;11.90;;;4.50;;
20966;SDS011;10642;50.682;18.510;2023-10-09T03:36:25;11.97;;;4.67;;
20966;SDS011;10642;50.682;18.510;2023-10-09T03:38:56;12.87;;;4.90;;
20966;SDS011;10642;50.682;18.510;2023-10-09T03:41:25;9.57;;;4.40;;
20966;SDS011;10642;50.682;18.510;2023-10-09T03:43:56;10.50;;;5.20;;
20966;SDS011;10642;50.682;18.510;2023-10-09T03:46:22;8.00;;;4.57;;
20966;SDS011;10642;50.682;18.510;2023-10-09T03:48:59;9.53;;;4.83;;
20966;SDS011;10642;50.682;18.510;2023-10-09T03:51:29;11.87;;;5.23;;
20966;SDS011;10642;50.682;18.510;2023-10-09T03:53:56;9.87;;;5.17;;
20966;SDS011;10642;50.682;18.510;2023-10-09T03:56:23;11.97;;;5.43;;
20966;SDS011;10642;50.682;18.510;2023-10-09T03:58:50;12.10;;;5.20;;
20966;SDS011;10642;50.682;18.510;2023-10-09T04:01:21;11.90;;;5.93;;
20966;SDS011;10642;50.682;18.510;2023-10-09T04:03:51;11.87;;;4.90;;
20966;SDS011;10642;50.682;18.510;2023-10-09T04:06:27;11.90;;;5.00;;
20966;SDS011;10642;50.682;18.510;2023-10-09T04:09:01;9.10;;;4.40;;
20966;SDS011;10642;50.682;18.510;2023-10-09T04:11:55;8.10;;;4.53;;
20966;SDS011;10642;50.682;18.510;2023-10-09T04:14:38;11.40;;;4.73;;
20966;SDS011;10642;50.682;18.510;2023-10-09T04:17:14;10.20;;;5.27;;
20966;SDS011;10642;50.682;18.510;2023-10-09T04:19:56;7.43;;;4.33;;
20966;SDS011;10642;50.682;18.510;2023-10-09T04:22:42;9.80;;;4.40;;
20966;SDS011;10642;50.682;18.510;2023-10-09T04:25:17;11.53;;;4.63;;
20966;SDS011;10642;50.682;18.510;2023-10-09T04:27:52;13.57;;;4.27;;
20966;SDS011;10642;50.682;18.510;2023-10-09T04:30:19;9.97;;;3.90;;
20966;SDS011;10642;50.682;18.510;2023-10-09T04:32:50;9.40;;;4.00;;
20966;SDS011;10642;50.682;18.510;2023-10-09T04:35:22;10.03;;;4.80;;
20966;SDS011;10642;50.682;18.510;2023-10-09T04:37:50;11.33;;;4.73;;
20966;SDS011;10642;50.682;18.510;2023-10-09T04:40:30;12.17;;;4.43;;
20966;SDS011;10642;50.682;18.510;2023-10-09T04:43:18;9.53;;;4.50;;
20966;SDS011;10642;50.682;18.510;2023-10-09T04:45:48;8.80;;;4.47;;
20966;SDS011;10642;50.682;18.510;2023-10-09T04:48:34;12.77;;;4.57;;
20966;SDS011;10642;50.682;18.510;2023-10-09T04:51:14;10.60;;;5.03;;
20966;SDS011;10642;50.682;18.510;2023-10-09T04:53:48;8.07;;;4.03;;
20966;SDS011;10642;50.682;18.510;2023-10-09T04:56:34;7.90;;;4.10;;
20966;SDS011;10642;50.682;18.510;2023-10-09T04:59:10;10.07;;;4.07;;
20966;SDS011;10642;50.682;18.510;2023-10-09T05:01:45;10.00;;;4.47;;
20966;SDS011;10642;50.682;18.510;2023-10-09T05:04:24;8.40;;;3.60;;
20966;SDS011;10642;50.682;18.510;2023-10-09T05:07:04;8.00;;;3.63;;
20966;SDS011;10642;50.682;18.510;2023-10-09T05:09:49;10.87;;;4.10;;
20966;SDS011;10642;50.682;18.510;2023-10-09T05:12:22;6.27;;;2.80;;
20966;SDS011;10642;50.682;18.510;2023-10-09T05:14:53;7.27;;;3.43;;
20966;SDS011;10642;50.682;18.510;2023-10-09T05:17:36;9.70;;;3.67;;
20966;SDS011;10642;50.682;18.510;2023-10-09T05:20:05;6.87;;;3.30;;
20966;SDS011;10642;50.682;18.510;2023-10-09T05:23:05;8.37;;;3.77;;
20966;SDS011;10642;50.682;18.510;2023-10-09T05:25:50;7.80;;;3.43;;
20966;SDS011;10642;50.682;18.510;2023-10-09T05:28:25;9.70;;;4.17;;
20966;SDS011;10642;50.682;18.510;2023-10-09T05:31:13;8.07;;;3.70;;
20966;SDS011;10642;50.682;18.510;2023-10-09T05:33:59;6.60;;;3.37;;
20966;SDS011;10642;50.682;18.510;2023-10-09T05:36:28;6.47;;;3.07;;
20966;SDS011;10642;50.682;18.510;2023-10-09T05:38:54;8.67;;;3.83;;
20966;SDS011;10642;50.682;18.510;2023-10-09T05:41:40;7.67;;;3.13;;
20966;SDS011;10642;50.682;18.510;2023-10-09T05:44:13;6.93;;;3.43;;
20966;SDS011;10642;50.682;18.510;2023-10-09T05:46:59;6.77;;;3.20;;
20966;SDS011;10642;50.682;18.510;2023-10-09T05:49:45;6.10;;;2.53;;
20966;SDS011;10642;50.682;18.510;2023-10-09T05:52:30;6.57;;;2.80;;
20966;SDS011;10642;50.682;18.510;2023-10-09T05:55:06;9.60;;;3.33;;
20966;SDS011;10642;50.682;18.510;2023-10-09T05:57:52;10.50;;;2.77;;
20966;SDS011;10642;50.682;18.510;2023-10-09T06:00:37;7.03;;;3.07;;
20966;SDS011;10642;50.682;18.510;2023-10-09T06:03:23;7.50;;;2.60;;
20966;SDS011;10642;50.682;18.510;2023-10-09T06:05:54;7.47;;;2.80;;
20966;SDS011;10642;50.682;18.510;2023-10-09T06:08:24;11.17;;;4.00;;
20966;SDS011;10642;50.682;18.510;2023-10-09T06:10:54;7.20;;;2.97;;
20966;SDS011;10642;50.682;18.510;2023-10-09T06:13:54;7.83;;;3.13;;
20966;SDS011;10642;50.682;18.510;2023-10-09T06:16:32;4.60;;;2.37;;
20966;SDS011;10642;50.682;18.510;2023-10-09T06:19:09;7.73;;;3.03;;
20966;SDS011;10642;50.682;18.510;2023-10-09T06:21:39;5.30;;;2.70;;
20966;SDS011;10642;50.682;18.510;2023-10-09T06:24:14;6.63;;;3.17;;
20966;SDS011;10642;50.682;18.510;2023-10-09T06:26:42;6.07;;;2.73;;
20966;SDS011;10642;50.682;18.510;2023-10-09T06:29:28;6.30;;;2.90;;
20966;SDS011;10642;50.682;18.510;2023-10-09T06:32:13;4.00;;;2.53;;
20966;SDS011;10642;50.682;18.510;2023-10-09T06:35:01;7.90;;;3.37;;
20966;SDS011;10642;50.682;18.510;2023-10-09T06:37:46;6.97;;;3.10;;
20966;SDS011;10642;50.682;18.510;2023-10-09T06:40:29;7.70;;;3.07;;
20966;SDS011;10642;50.682;18.510;2023-10-09T06:43:15;5.20;;;2.60;;
20966;SDS011;10642;50.682;18.510;2023-10-09T06:45:51;4.83;;;2.30;;
20966;SDS011;10642;50.682;18.510;2023-10-09T06:48:22;6.53;;;2.77;;
20966;SDS011;10642;50.682;18.510;2023-10-09T06:51:04;5.67;;;2.60;;
20966;SDS011;10642;50.682;18.510;2023-10-09T06:53:39;5.53;;;2.70;;
20966;SDS011;10642;50.682;18.510;2023-10-09T07:01:25;4.37;;;2.90;;
20966;SDS011;10642;50.682;18.510;2023-10-09T07:04:06;7.53;;;2.70;;
20966;SDS011;10642;50.682;18.510;2023-10-09T07:06:50;5.63;;;3.00;;
20966;SDS011;10642;50.682;18.510;2023-10-09T07:09:18;6.33;;;2.77;;
20966;SDS011;10642;50.682;18.510;2023-10-09T07:11:47;4.97;;;2.53;;
20966;SDS011;10642;50.682;18.510;2023-10-09T07:14:15;4.77;;;2.57;;
20966;SDS011;10642;50.682;18.510;2023-10-09T07:16:59;7.07;;;2.93;;
20966;SDS011;10642;50.682;18.510;2023-10-09T07:19:27;5.67;;;2.90;;
20966;SDS011;10642;50.682;18.510;2023-10-09T07:22:07;5.23;;;2.47;;
20966;SDS011;10642;50.682;18.510;2023-10-09T07:27:27;5.37;;;2.43;;
20966;SDS011;10642;50.682;18.510;2023-10-09T07:30:13;4.63;;;2.30;;
20966;SDS011;10642;50.682;18.510;2023-10-09T07:32:56;4.37;;;2.20;;
20966;SDS011;10642;50.682;18.510;2023-10-09T07:35:45;4.30;;;2.17;;
20966;SDS011;10642;50.682;18.510;2023-10-09T07:38:15;6.43;;;2.23;;
20966;SDS011;10642;50.682;18.510;2023-10-09T07:40:46;9.80;;;2.30;;
20966;SDS011;10642;50.682;18.510;2023-10-09T07:43:32;4.10;;;1.43;;
20966;SDS011;10642;50.682;18.510;2023-10-09T07:46:12;4.50;;;1.97;;
20966;SDS011;10642;50.682;18.510;2023-10-09T07:49:02;3.70;;;2.00;;
20966;SDS011;10642;50.682;18.510;2023-10-09T07:51:49;5.13;;;1.87;;
20966;SDS011;10642;50.682;18.510;2023-10-09T07:54:16;5.70;;;2.27;;
20966;SDS011;10642;50.682;18.510;2023-10-09T07:56:59;4.60;;;1.93;;
20966;SDS011;10642;50.682;18.510;2023-10-09T07:59:35;4.20;;;2.40;;
20966;SDS011;10642;50.682;18.510;2023-10-09T08:02:07;5.27;;;2.70;;
20966;SDS011;10642;50.682;18.510;2023-10-09T08:04:40;5.47;;;2.47;;
20966;SDS011;10642;50.682;18.510;2023-10-09T08:07:16;6.90;;;2.60;;
20966;SDS011;10642;50.682;18.510;2023-10-09T08:10:07;4.23;;;2.20;;
20966;SDS011;10642;50.682;18.510;2023-10-09T08:12:40;4.43;;;2.03;;
20966;SDS011;10642;50.682;18.510;2023-10-09T08:15:17;4.83;;;1.80;;
20966;SDS011;10642;50.682;18.510;2023-10-09T08:17:44;3.63;;;1.33;;
20966;SDS011;10642;50.682;18.510;2023-10-09T08:20:17;6.60;;;1.50;;
20966;SDS011;10642;50.682;18.510;2023-10-09T08:22:55;3.63;;;1.50;;
20966;SDS011;10642;50.682;18.510;2023-10-09T08:25:25;3.97;;;1.57;;
20966;SDS011;10642;50.682;18.510;2023-10-09T08:27:56;4.40;;;1.40;;
20966;SDS011;10642;50.682;18.510;2023-10-09T08:30:24;4.90;;;1.37;;
20966;SDS011;10642;50.682;18.510;2023-10-09T08:32:52;4.77;;;1.60;;
20966;SDS011;10642;50.682;18.510;2023-10-09T08:35:32;4.47;;;1.70;;
20966;SDS011;10642;50.682;18.510;2023-10-09T08:38:01;2.93;;;1.40;;
20966;SDS011;10642;50.682;18.510;2023-10-09T08:40:38;3.57;;;1.47;;
20966;SDS011;10642;50.682;18.510;2023-10-09T08:43:09;3.37;;;1.40;;
20966;SDS011;10642;50.682;18.510;2023-10-09T08:45:37;5.33;;;1.40;;
20966;SDS011;10642;50.682;18.510;2023-10-09T08:48:07;4.07;;;1.50;;
20966;SDS011;10642;50.682;18.510;2023-10-09T08:50:38;3.67;;;1.10;;
20966;SDS011;10642;50.682;18.510;2023-10-09T08:53:05;4.27;;;1.53;;
20966;SDS011;10642;50.682;18.510;2023-10-09T08:55:33;4.40;;;1.60;;
20966;SDS011;10642;50.682;18.510;2023-10-09T08:58:02;5.73;;;1.40;;
20966;SDS011;10642;50.682;18.510;2023-10-09T09:00:32;8.90;;;1.50;;
20966;SDS011;10642;50.682;18.510;2023-10-09T09:02:59;3.87;;;1.90;;
20966;SDS011;10642;50.682;18.510;2023-10-09T09:05:30;4.30;;;2.37;;
20966;SDS011;10642;50.682;18.510;2023-10-09T09:08:02;3.40;;;1.70;;
20966;SDS011;10642;50.682;18.510;2023-10-09T09:10:31;4.63;;;2.00;;
20966;SDS011;10642;50.682;18.510;2023-10-09T09:13:14;4.87;;;1.90;;
20966;SDS011;10642;50.682;18.510;2023-10-09T09:15:48;3.00;;;1.73;;
20966;SDS011;10642;50.682;18.510;2023-10-09T09:18:15;3.17;;;2.00;;
20966;SDS011;10642;50.682;18.510;2023-10-09T09:20:44;7.40;;;2.87;;
20966;SDS011;10642;50.682;18.510;2023-10-09T09:23:17;9.13;;;3.00;;
20966;SDS011;10642;50.682;18.510;2023-10-09T09:25:50;5.67;;;2.40;;
20966;SDS011;10642;50.682;18.510;2023-10-09T09:28:26;4.17;;;1.93;;
20966;SDS011;10642;50.682;18.510;2023-10-09T09:31:08;5.27;;;2.13;;
20966;SDS011;10642;50.682;18.510;2023-10-09T09:33:40;3.83;;;2.10;;
20966;SDS011;10642;50.682;18.510;2023-10-09T09:36:09;7.13;;;2.50;;
20966;SDS011;10642;50.682;18.510;2023-10-09T09:38:39;7.87;;;2.93;;
20966;SDS011;10642;50.682;18.510;2023-10-09T09:41:15;5.17;;;2.60;;
20966;SDS011;10642;50.682;18.510;2023-10-09T09:43:55;5.13;;;2.37;;
20966;SDS011;10642;50.682;18.510;2023-10-09T09:46:32;7.23;;;2.67;;
20966;SDS011;10642;50.682;18.510;2023-10-09T09:49:05;5.13;;;2.43;;
20966;SDS011;10642;50.682;18.510;2023-10-09T09:51:48;4.17;;;2.07;;
20966;SDS011;10642;50.682;18.510;2023-10-09T09:54:15;4.83;;;2.50;;
20966;SDS011;10642;50.682;18.510;2023-10-09T09:56:45;4.87;;;1.87;;
20966;SDS011;10642;50.682;18.510;2023-10-09T09:59:18;4.63;;;1.87;;
20966;SDS011;10642;50.682;18.510;2023-10-09T10:01:51;5.37;;;2.13;;
20966;SDS011;10642;50.682;18.510;2023-10-09T10:04:34;4.30;;;2.00;;
20966;SDS011;10642;50.682;18.510;2023-10-09T10:07:04;4.37;;;2.10;;
20966;SDS011;10642;50.682;18.510;2023-10-09T10:12:06;5.33;;;2.53;;
20966;SDS011;10642;50.682;18.510;2023-10-09T10:14:57;6.03;;;2.37;;
20966;SDS011;10642;50.682;18.510;2023-10-09T10:20:26;6.03;;;2.83;;
20966;SDS011;10642;50.682;18.510;2023-10-09T10:25:43;4.73;;;2.07;;
20966;SDS011;10642;50.682;18.510;2023-10-09T10:28:19;3.30;;;1.53;;
20966;SDS011;10642;50.682;18.510;2023-10-09T10:30:55;3.57;;;2.00;;
20966;SDS011;10642;50.682;18.510;2023-10-09T10:33:28;3.70;;;2.10;;
20966;SDS011;10642;50.682;18.510;2023-10-09T10:36:14;6.20;;;2.10;;
20966;SDS011;10642;50.682;18.510;2023-10-09T10:39:01;5.03;;;1.97;;
20966;SDS011;10642;50.682;18.510;2023-10-09T10:41:37;4.70;;;2.20;;
20966;SDS011;10642;50.682;18.510;2023-10-09T10:44:30;3.93;;;1.97;;
20966;SDS011;10642;50.682;18.510;2023-10-09T10:47:00;4.13;;;2.20;;
20966;SDS011;10642;50.682;18.510;2023-10-09T10:49:28;8.07;;;3.17;;
20966;SDS011;10642;50.682;18.510;2023-10-09T10:52:04;6.40;;;3.67;;
20966;SDS011;10642;50.682;18.510;2023-10-09T10:55:06;6.30;;;3.17;;
20966;SDS011;10642;50.682;18.510;2023-10-09T10:57:44;5.33;;;2.80;;
20966;SDS011;10642;50.682;18.510;2023-10-09T11:00:28;6.33;;;3.50;;
20966;SDS011;10642;50.682;18.510;2023-10-09T11:03:20;6.33;;;3.43;;
20966;SDS011;10642;50.682;18.510;2023-10-09T11:06:00;6.67;;;3.17;;
20966;SDS011;10642;50.682;18.510;2023-10-09T11:08:43;4.23;;;2.73;;
20966;SDS011;10642;50.682;18.510;2023-10-09T11:11:22;6.37;;;3.47;;
20966;SDS011;10642;50.682;18.510;2023-10-09T11:13:49;6.47;;;3.10;;
20966;SDS011;10642;50.682;18.510;2023-10-09T11:16:31;7.27;;;2.73;;
20966;SDS011;10642;50.682;18.510;2023-10-09T11:19:12;5.97;;;3.07;;
20966;SDS011;10642;50.682;18.510;2023-10-09T11:21:50;6.10;;;3.03;;
20966;SDS011;10642;50.682;18.510;2023-10-09T11:24:28;11.40;;;4.73;;
20966;SDS011;10642;50.682;18.510;2023-10-09T11:27:02;6.03;;;2.93;;
20966;SDS011;10642;50.682;18.510;2023-10-09T11:29:36;6.80;;;3.60;;
20966;SDS011;10642;50.682;18.510;2023-10-09T11:32:15;5.43;;;2.80;;
20966;SDS011;10642;50.682;18.510;2023-10-09T11:34:46;8.00;;;2.70;;
20966;SDS011;10642;50.682;18.510;2023-10-09T11:37:20;6.67;;;2.70;;
20966;SDS011;10642;50.682;18.510;2023-10-09T11:39:59;7.17;;;2.97;;
20966;SDS011;10642;50.682;18.510;2023-10-09T11:42:28;5.73;;;3.10;;
20966;SDS011;10642;50.682;18.510;2023-10-09T11:45:23;9.03;;;3.10;;
20966;SDS011;10642;50.682;18.510;2023-10-09T11:48:17;7.23;;;3.40;;
20966;SDS011;10642;50.682;18.510;2023-10-09T11:51:13;5.00;;;2.60;;
20966;SDS011;10642;50.682;18.510;2023-10-09T11:53:46;6.17;;;2.40;;
20966;SDS011;10642;50.682;18.510;2023-10-09T11:56:18;6.77;;;2.87;;
20966;SDS011;10642;50.682;18.510;2023-10-09T11:58:53;5.20;;;2.53;;
20966;SDS011;10642;50.682;18.510;2023-10-09T12:01:21;4.47;;;2.47;;
20966;SDS011;10642;50.682;18.510;2023-10-09T12:03:49;5.33;;;2.57;;
20966;SDS011;10642;50.682;18.510;2023-10-09T12:06:17;4.97;;;3.07;;
20966;SDS011;10642;50.682;18.510;2023-10-09T12:08:49;5.17;;;2.63;;
20966;SDS011;10642;50.682;18.510;2023-10-09T12:11:16;6.27;;;2.87;;
20966;SDS011;10642;50.682;18.510;2023-10-09T12:13:50;5.07;;;2.47;;
20966;SDS011;10642;50.682;18.510;2023-10-09T12:19:43;5.30;;;2.90;;
20966;SDS011;10642;50.682;18.510;2023-10-09T12:22:10;7.67;;;2.80;;
20966;SDS011;10642;50.682;18.510;2023-10-09T12:24:43;5.67;;;3.10;;
20966;SDS011;10642;50.682;18.510;2023-10-09T12:27:10;9.57;;;3.43;;
20966;SDS011;10642;50.682;18.510;2023-10-09T12:29:38;4.97;;;3.27;;
20966;SDS011;10642;50.682;18.510;2023-10-09T12:32:15;7.53;;;3.37;;
20966;SDS011;10642;50.682;18.510;2023-10-09T12:34:46;5.70;;;3.03;;
20966;SDS011;10642;50.682;18.510;2023-10-09T12:37:17;8.80;;;3.43;;
20966;SDS011;10642;50.682;18.510;2023-10-09T12:39:47;8.40;;;3.33;;
20966;SDS011;10642;50.682;18.510;2023-10-09T12:42:14;7.40;;;3.20;;
20966;SDS011;10642;50.682;18.510;2023-10-09T12:44:43;5.97;;;3.33;;
20966;SDS011;10642;50.682;18.510;2023-10-09T12:47:11;65.97;;;35.63;;
20966;SDS011;10642;50.682;18.510;2023-10-09T12:49:38;17.10;;;10.87;;
20966;SDS011;10642;50.682;18.510;2023-10-09T12:52:08;24.47;;;19.83;;
20966;SDS011;10642;50.682;18.510;2023-10-09T12:54:43;98.00;;;79.37;;
20966;SDS011;10642;50.682;18.510;2023-10-09T12:57:13;48.10;;;37.80;;
20966;SDS011;10642;50.682;18.510;2023-10-09T12:59:40;13.77;;;9.30;;
20966;SDS011;10642;50.682;18.510;2023-10-09T13:02:13;80.17;;;16.93;;
20966;SDS011;10642;50.682;18.510;2023-10-09T13:04:40;79.33;;;17.27;;
20966;SDS011;10642;50.682;18.510;2023-10-09T13:07:09;60.67;;;13.77;;
20966;SDS011;10642;50.682;18.510;2023-10-09T13:09:36;19.03;;;6.43;;
20966;SDS011;10642;50.682;18.510;2023-10-09T13:12:23;18.73;;;7.33;;
20966;SDS011;10642;50.682;18.510;2023-10-09T13:14:50;11.60;;;4.50;;
20966;SDS011;10642;50.682;18.510;2023-10-09T13:17:17;23.80;;;8.27;;
20966;SDS011;10642;50.682;18.510;2023-10-09T13:19:47;18.43;;;6.90;;
20966;SDS011;10642;50.682;18.510;2023-10-09T13:22:14;14.90;;;5.00;;
20966;SDS011;10642;50.682;18.510;2023-10-09T13:24:41;16.00;;;5.90;;
20966;SDS011;10642;50.682;18.510;2023-10-09T13:27:08;12.27;;;5.10;;
20966;SDS011;10642;50.682;18.510;2023-10-09T13:29:37;6.20;;;3.77;;
20966;SDS011;10642;50.682;18.510;2023-10-09T13:32:07;17.27;;;6.80;;
20966;SDS011;10642;50.682;18.510;2023-10-09T13:34:40;7.03;;;3.77;;
20966;SDS011;10642;50.682;18.510;2023-10-09T13:37:15;6.53;;;3.50;;
20966;SDS011;10642;50.682;18.510;2023-10-09T13:39:50;7.93;;;4.27;;
20966;SDS011;10642;50.682;18.510;2023-10-09T13:42:20;8.73;;;4.43;;
20966;SDS011;10642;50.682;18.510;2023-10-09T13:44:52;10.13;;;4.53;;
20966;SDS011;10642;50.682;18.510;2023-10-09T13:47:22;11.33;;;4.70;;
20966;SDS011;10642;50.682;18.510;2023-10-09T13:49:55;8.53;;;4.43;;
20966;SDS011;10642;50.682;18.510;2023-10-09T13:52:24;8.93;;;5.40;;
20966;SDS011;10642;50.682;18.510;2023-10-09T13:54:51;8.33;;;4.60;;
20966;SDS011;10642;50.682;18.510;2023-10-09T13:57:18;7.67;;;4.53;;
20966;SDS011;10642;50.682;18.510;2023-10-09T13:59:49;7.73;;;4.63;;
20966;SDS011;10642;50.682;18.510;2023-10-09T14:02:16;7.43;;;4.50;;
20966;SDS011;10642;50.682;18.510;2023-10-09T14:04:48;9.07;;;4.53;;
20966;SDS011;10642;50.682;18.510;2023-10-09T14:07:15;8.20;;;4.63;;
20966;SDS011;10642;50.682;18.510;2023-10-09T14:09:47;8.87;;;4.83;;
20966;SDS011;10642;50.682;18.510;2023-10-09T14:12:34;9.33;;;5.10;;
20966;SDS011;10642;50.682;18.510;2023-10-09T14:15:06;6.70;;;4.53;;
20966;SDS011;10642;50.682;18.510;2023-10-09T14:17:39;7.97;;;4.77;;
20966;SDS011;10642;50.682;18.510;2023-10-09T14:20:09;8.47;;;5.60;;
20966;SDS011;10642;50.682;18.510;2023-10-09T14:22:55;9.10;;;5.47;;
20966;SDS011;10642;50.682;18.510;2023-10-09T14:25:22;9.40;;;5.43;;
20966;SDS011;10642;50.682;18.510;2023-10-09T14:27:50;9.43;;;5.57;;
20966;SDS011;10642;50.682;18.510;2023-10-09T14:30:19;11.03;;;5.63;;
20966;SDS011;10642;50.682;18.510;2023-10-09T14:32:57;19.33;;;7.20;;
20966;SDS011;10642;50.682;18.510;2023-10-09T14:35:26;14.87;;;7.90;;
20966;SDS011;10642;50.682;18.510;2023-10-09T14:37:57;12.87;;;6.83;;
20966;SDS011;10642;50.682;18.510;2023-10-09T14:40:24;40.13;;;14.40;;
20966;SDS011;10642;50.682;18.510;2023-10-09T14:42:58;21.80;;;11.30;;
20966;SDS011;10642;50.682;18.510;2023-10-09T14:45:25;79.13;;;25.50;;
20966;SDS011;10642;50.682;18.510;2023-10-09T14:47:53;46.13;;;22.70;;
20966;SDS011;10642;50.682;18.510;2023-10-09T14:50:21;71.83;;;25.93;;
20966;SDS011;10642;50.682;18.510;2023-10-09T14:52:50;115.67;;;32.90;;
20966;SDS011;10642;50.682;18.510;2023-10-09T14:55:18;55.43;;;23.30;;
20966;SDS011;10642;50.682;18.510;2023-10-09T14:57:48;61.17;;;20.90;;
20966;SDS011;10642;50.682;18.510;2023-10-09T15:00:16;42.67;;;15.80;;
20966;SDS011;10642;50.682;18.510;2023-10-09T15:02:50;49.23;;;19.83;;
20966;SDS011;10642;50.682;18.510;2023-10-09T15:05:18;20.30;;;10.33;;
20966;SDS011;10642;50.682;18.510;2023-10-09T15:07:45;16.57;;;9.37;;
20966;SDS011;10642;50.682;18.510;2023-10-09T15:10:13;13.80;;;7.30;;
20966;SDS011;10642;50.682;18.510;2023-10-09T15:12:42;14.03;;;8.00;;
20966;SDS011;10642;50.682;18.510;2023-10-09T15:15:10;19.03;;;10.50;;
20966;SDS011;10642;50.682;18.510;2023-10-09T15:17:44;23.17;;;13.43;;
20966;SDS011;10642;50.682;18.510;2023-10-09T15:20:15;82.80;;;48.77;;
20966;SDS011;10642;50.682;18.510;2023-10-09T15:22:44;59.53;;;36.10;;
20966;SDS011;10642;50.682;18.510;2023-10-09T15:25:11;47.37;;;28.80;;
20966;SDS011;10642;50.682;18.510;2023-10-09T15:27:43;81.67;;;45.70;;
20966;SDS011;10642;50.682;18.510;2023-10-09T15:30:10;78.73;;;44.63;;
20966;SDS011;10642;50.682;18.510;2023-10-09T15:32:41;78.43;;;39.57;;
20966;SDS011;10642;50.682;18.510;2023-10-09T15:35:08;39.03;;;20.63;;